Time;durP1;ratioP1;P1;durP2;ratioP2;P2;SDS_P1;SDS_P2;PMS_P1;PMS_P2;Temp;Humidity;BMP_temperature;BMP_pressure;BME280_temperature;BME280_humidity;BME280_pressure;Samples;Min_cycle;Max_cycle;Signal;HPM_P1;HPM_P2
2023/03/25 00:00:13;;;;;;;5.13;4.70;;;6.30;99.90;;;;;;2077201;28;20296;-59
2023/03/25 00:01:18;;;;;;;3.38;3.08;;;6.40;99.90;;;;;;2071050;28;20193;-60
2023/03/25 00:02:26;;;;;;;9.45;8.75;;;6.40;99.90;;;;;;2070718;28;20185;-61
2023/03/25 00:03:32;;;;;;;6.28;5.88;;;6.40;99.90;;;;;;2076991;28;20535;-62
2023/03/25 00:04:39;;;;;;;4.53;2.88;;;6.30;99.90;;;;;;2077034;28;20185;-61
2023/03/25 00:05:45;;;;;;;2.95;2.17;;;6.30;99.90;;;;;;2077166;28;20189;-61
2023/03/25 00:06:54;;;;;;;6.40;5.90;;;6.20;99.90;;;;;;2077016;28;20261;-60
2023/03/25 00:08:01;;;;;;;8.00;7.45;;;6.10;99.90;;;;;;2077010;28;20181;-60
2023/03/25 00:09:03;;;;;;;2.55;2.33;;;6.00;99.90;;;;;;2076893;28;20736;-61
2023/03/25 00:10:05;;;;;;;6.57;5.97;;;5.90;99.90;;;;;;2077048;28;20199;-63
2023/03/25 00:11:09;;;;;;;2.17;2.00;;;5.90;99.90;;;;;;2076755;28;20190;-61
2023/03/25 00:12:15;;;;;;;1.55;1.30;;;5.80;99.90;;;;;;2076782;28;20184;-60
2023/03/25 00:13:22;;;;;;;2.30;1.30;;;5.80;99.90;;;;;;2077376;28;20225;-62
2023/03/25 00:14:28;;;;;;;1.75;1.08;;;5.80;99.90;;;;;;2077166;28;20181;-60
2023/03/25 00:15:33;;;;;;;2.80;2.13;;;5.80;99.90;;;;;;2076972;28;20677;-60
2023/03/25 00:16:39;;;;;;;6.97;3.15;;;5.80;99.90;;;;;;2076996;28;20216;-61
2023/03/25 00:17:45;;;;;;;4.05;2.95;;;5.80;99.90;;;;;;2076751;28;20689;-60
2023/03/25 00:18:51;;;;;;;1.77;1.00;;;5.80;99.90;;;;;;2075899;28;20193;-60
2023/03/25 00:19:59;;;;;;;15.30;14.20;;;5.80;99.90;;;;;;2076622;28;20720;-62
2023/03/25 00:21:10;;;;;;;6.78;6.10;;;5.80;99.90;;;;;;2076641;28;20572;-60
2023/03/25 00:22:18;;;;;;;16.05;14.50;;;5.80;99.90;;;;;;2076501;28;20193;-61
2023/03/25 00:23:23;;;;;;;2.63;1.98;;;5.70;99.90;;;;;;2076633;28;20205;-61
2023/03/25 00:24:29;;;;;;;1.38;1.00;;;5.70;99.90;;;;;;2076780;28;20241;-60
2023/03/25 00:25:35;;;;;;;3.45;2.17;;;5.70;99.90;;;;;;2076614;28;20184;-61
2023/03/25 00:26:41;;;;;;;2.75;1.60;;;5.70;99.90;;;;;;2076875;28;20628;-60
2023/03/25 00:27:49;;;;;;;7.07;6.53;;;5.70;99.90;;;;;;2079788;28;20223;-60
2023/03/25 00:28:55;;;;;;;6.60;6.07;;;5.70;99.90;;;;;;2076858;28;20661;-61
2023/03/25 00:30:01;;;;;;;3.65;1.30;;;5.80;99.90;;;;;;2076554;28;20573;-61
2023/03/25 00:31:11;;;;;;;5.47;1.02;;;5.70;99.90;;;;;;2076817;28;20246;-61
2023/03/25 00:32:19;;;;;;;6.82;6.32;;;5.60;99.90;;;;;;2076290;28;20182;-61
2023/03/25 00:33:26;;;;;;;2.08;1.45;;;5.60;99.90;;;;;;2076949;28;20199;-60
2023/03/25 00:34:34;;;;;;;5.85;1.50;;;5.60;99.90;;;;;;2076549;28;20176;-60
2023/03/25 00:35:47;;;;;;;2.88;1.25;;;5.60;99.90;;;;;;2076752;28;20406;-61
2023/03/25 00:36:55;;;;;;;3.83;1.77;;;5.50;99.90;;;;;;2076690;28;20184;-61
2023/03/25 00:38:01;;;;;;;6.30;2.58;;;5.50;99.90;;;;;;2076566;28;21027;-59
2023/03/25 00:39:05;;;;;;;2.95;1.45;;;5.50;99.90;;;;;;2076644;28;20227;-61
2023/03/25 00:40:10;;;;;;;4.68;3.70;;;5.50;99.90;;;;;;2080100;28;20188;-61
2023/03/25 00:41:24;;;;;;;5.95;2.97;;;5.50;99.90;;;;;;2076595;28;20172;-60
2023/03/25 00:42:30;;;;;;;5.55;0.98;;;5.50;99.90;;;;;;2076548;28;20181;-61
2023/03/25 00:43:36;;;;;;;1.65;1.55;;;5.50;99.90;;;;;;2076654;28;20204;-61
2023/03/25 00:44:42;;;;;;;3.28;1.30;;;5.50;99.90;;;;;;2076600;28;20185;-59
2023/03/25 00:45:47;;;;;;;4.20;2.08;;;5.50;99.90;;;;;;2076733;28;20186;-61
2023/03/25 00:46:53;;;;;;;2.42;1.10;;;5.50;99.90;;;;;;2076493;28;20187;-60
2023/03/25 00:47:59;;;;;;;7.03;1.27;;;5.50;99.90;;;;;;2076596;28;20185;-61
2023/03/25 00:49:04;;;;;;;4.93;1.75;;;5.50;99.90;;;;;;2076515;28;20193;-60
2023/03/25 00:50:10;;;;;;;10.75;9.88;;;5.50;99.90;;;;;;2076824;28;21292;-61
2023/03/25 00:51:20;;;;;;;4.63;3.17;;;5.60;99.90;;;;;;2076434;28;20203;-60
2023/03/25 00:52:25;;;;;;;5.20;1.38;;;5.50;99.90;;;;;;2076717;28;20189;-61
2023/03/25 00:53:33;;;;;;;3.95;2.47;;;5.50;99.90;;;;;;2076683;28;20181;-61
2023/03/25 00:54:38;;;;;;;5.18;1.05;;;5.40;99.90;;;;;;2076561;28;20259;-61
2023/03/25 00:55:44;;;;;;;5.30;1.25;;;5.50;99.90;;;;;;2076712;28;20705;-60
2023/03/25 00:56:52;;;;;;;7.53;2.25;;;5.50;99.90;;;;;;2076650;28;20225;-61
2023/03/25 00:57:57;;;;;;;3.95;1.55;;;5.60;99.90;;;;;;2076721;28;20213;-61
2023/03/25 00:59:03;;;;;;;4.78;4.25;;;5.60;99.90;;;;;;2076531;28;20186;-60
2023/03/25 01:00:14;;;;;;;4.30;2.00;;;5.70;99.90;;;;;;2076706;28;20292;-61
2023/03/25 01:01:26;;;;;;;4.55;1.42;;;5.70;99.90;;;;;;2076332;28;20212;-59
2023/03/25 01:02:32;;;;;;;4.68;2.92;;;5.70;99.90;;;;;;2076434;28;20561;-59
2023/03/25 01:03:39;;;;;;;9.45;3.70;;;5.60;99.90;;;;;;2067556;28;20757;-59
2023/03/25 01:04:45;;;;;;;3.28;2.33;;;5.60;99.90;;;;;;2069595;28;20269;-60
2023/03/25 01:05:53;;;;;;;6.63;3.47;;;5.60;99.90;;;;;;2076421;28;20555;-60
2023/03/25 01:07:00;;;;;;;2.00;1.25;;;5.70;99.90;;;;;;2076660;28;20614;-60
2023/03/25 01:08:05;;;;;;;5.38;1.00;;;5.70;99.90;;;;;;2076482;28;20186;-60
2023/03/25 01:09:12;;;;;;;3.50;1.23;;;5.80;99.90;;;;;;2076542;28;20177;-61
2023/03/25 01:10:18;;;;;;;4.40;1.58;;;5.90;99.90;;;;;;2076657;28;20566;-60
2023/03/25 01:11:33;;;;;;;3.50;1.67;;;5.80;99.90;;;;;;2076392;28;20189;-61
2023/03/25 01:12:39;;;;;;;6.82;1.90;;;5.90;99.90;;;;;;2076511;28;20233;-61
2023/03/25 01:13:45;;;;;;;9.30;8.02;;;5.90;99.90;;;;;;2076381;28;20185;-60
2023/03/25 01:14:51;;;;;;;3.22;1.33;;;5.90;99.90;;;;;;2067820;28;20663;-60
2023/03/25 01:15:57;;;;;;;4.35;1.52;;;5.80;99.90;;;;;;2068402;28;20205;-61
2023/03/25 01:17:03;;;;;;;5.45;1.67;;;5.80;99.90;;;;;;2076693;28;20180;-60
2023/03/25 01:18:09;;;;;;;9.55;8.77;;;5.90;99.90;;;;;;2076382;28;20195;-60
2023/03/25 01:19:11;;;;;;;4.30;1.40;;;5.80;99.90;;;;;;2076486;28;20317;-59
2023/03/25 01:20:16;;;;;;;4.60;4.22;;;5.70;99.90;;;;;;2076488;28;20573;-60
2023/03/25 01:21:22;;;;;;;11.50;10.85;;;5.70;99.90;;;;;;2076542;28;20808;-60
2023/03/25 01:22:29;;;;;;;8.98;8.15;;;5.60;99.90;;;;;;2076599;28;20189;-60
2023/03/25 01:23:34;;;;;;;4.70;1.65;;;5.40;99.90;;;;;;2076584;28;20659;-60
2023/03/25 01:24:40;;;;;;;5.57;5.20;;;5.10;99.90;;;;;;2076801;28;20197;-59
2023/03/25 01:25:46;;;;;;;4.30;3.15;;;5.00;99.90;;;;;;2076911;28;20328;-61
2023/03/25 01:26:52;;;;;;;2.85;1.40;;;4.90;99.90;;;;;;2076781;28;20185;-59
2023/03/25 01:27:57;;;;;;;4.38;1.17;;;4.80;99.90;;;;;;2076655;28;20267;-60
2023/03/25 01:29:03;;;;;;;2.45;2.35;;;4.70;99.90;;;;;;2076655;28;20543;-60
2023/03/25 01:30:09;;;;;;;6.57;6.20;;;4.60;99.90;;;;;;2076542;28;20829;-63
2023/03/25 01:31:15;;;;;;;2.10;2.00;;;4.40;99.90;;;;;;2078508;28;20190;-60
2023/03/25 01:32:21;;;;;;;1.73;0.93;;;4.20;99.90;;;;;;2084235;28;20231;-60
2023/03/25 01:33:27;;;;;;;1.20;0.45;;;4.00;99.90;;;;;;2079756;28;20197;-61
2023/03/25 01:34:37;;;;;;;0.57;0.52;;;4.00;99.90;;;;;;2076745;28;20190;-60
2023/03/25 01:35:43;;;;;;;0.68;0.68;;;4.00;99.90;;;;;;2080598;28;20255;-60
2023/03/25 01:36:49;;;;;;;6.07;5.72;;;4.00;99.90;;;;;;2076942;28;20221;-60
2023/03/25 01:37:55;;;;;;;0.52;0.40;;;4.00;99.90;;;;;;2076832;28;20189;-59
2023/03/25 01:39:04;;;;;;;0.60;0.60;;;4.00;99.90;;;;;;2076380;28;20228;-59
2023/03/25 01:40:19;;;;;;;0.43;0.43;;;4.00;99.90;;;;;;2076604;28;20216;-61
2023/03/25 01:41:27;;;;;;;0.50;0.50;;;4.00;99.90;;;;;;2067668;28;20273;-60
2023/03/25 01:42:34;;;;;;;0.38;0.38;;;4.20;99.90;;;;;;2069871;28;20187;-61
2023/03/25 01:43:39;;;;;;;0.90;0.50;;;4.20;99.90;;;;;;2077300;28;20197;-60
2023/03/25 01:44:46;;;;;;;1.10;0.52;;;4.30;99.90;;;;;;2078202;28;20532;-60
2023/03/25 01:45:52;;;;;;;0.40;0.40;;;4.30;99.90;;;;;;2078040;28;20318;-60
2023/03/25 01:47:02;;;;;;;0.45;0.45;;;4.30;99.90;;;;;;2078108;28;20185;-61
2023/03/25 01:48:11;;;;;;;0.40;0.40;;;4.40;99.90;;;;;;2069477;28;20186;-60
2023/03/25 01:49:32;;;;;;;1.70;0.75;;;4.40;99.90;;;;;;2071413;28;20189;-61
2023/03/25 01:50:44;;;;;;;1.73;0.52;;;4.40;99.90;;;;;;2078086;28;20196;-60
2023/03/25 01:51:56;;;;;;;1.33;0.70;;;4.40;99.90;;;;;;2068884;28;20193;-61
2023/03/25 01:53:05;;;;;;;0.95;0.93;;;4.50;99.90;;;;;;2063554;28;20214;-59
2023/03/25 01:54:09;;;;;;;1.38;0.70;;;4.50;99.90;;;;;;2070901;28;20224;-61
2023/03/25 01:55:16;;;;;;;1.17;0.70;;;4.50;99.90;;;;;;2077233;28;20665;-59
2023/03/25 01:56:30;;;;;;;1.73;0.80;;;4.50;99.90;;;;;;2069140;28;20284;-61
2023/03/25 01:57:42;;;;;;;2.28;0.80;;;4.50;99.90;;;;;;2072067;28;20784;-59
2023/03/25 01:58:50;;;;;;;3.42;1.75;;;4.60;99.90;;;;;;2077996;28;20188;-61
2023/03/25 01:59:56;;;;;;;6.05;1.55;;;4.60;99.90;;;;;;2077146;28;20191;-60
2023/03/25 02:01:03;;;;;;;5.30;1.20;;;4.80;99.90;;;;;;2077358;28;20276;-61
2023/03/25 02:02:07;;;;;;;4.00;0.90;;;4.90;99.90;;;;;;2077627;28;20920;-59
2023/03/25 02:03:10;;;;;;;2.28;1.30;;;5.00;99.90;;;;;;2077825;28;20217;-61
2023/03/25 02:04:30;;;;;;;14.15;13.07;;;5.10;99.90;;;;;;2077726;28;20208;-59
2023/03/25 02:05:54;;;;;;;5.15;2.35;;;5.10;99.90;;;;;;2077200;28;20216;-60
2023/03/25 02:07:00;;;;;;;2.85;1.90;;;5.10;99.90;;;;;;2073212;28;20181;-60
2023/03/25 02:08:08;;;;;;;9.18;6.40;;;5.20;99.90;;;;;;2062017;28;20733;-60
2023/03/25 02:09:12;;;;;;;4.90;2.25;;;5.20;99.90;;;;;;2070245;28;21073;-59
2023/03/25 02:10:19;;;;;;;6.57;3.70;;;5.30;99.90;;;;;;2077139;28;20655;-60
2023/03/25 02:11:28;;;;;;;4.28;3.80;;;5.40;99.90;;;;;;2078035;28;20225;-60
2023/03/25 02:12:33;;;;;;;4.40;2.17;;;5.40;99.90;;;;;;2078085;28;20735;-60
2023/03/25 02:13:40;;;;;;;7.13;2.67;;;5.40;99.90;;;;;;2076850;28;20271;-61
2023/03/25 02:14:46;;;;;;;5.53;3.92;;;5.40;99.90;;;;;;2077896;28;20181;-60
2023/03/25 02:16:20;;;;;;;8.02;3.53;;;5.40;99.90;;;;;;2077605;28;20197;-61
2023/03/25 02:18:03;;;;;;;5.05;3.28;;;5.40;99.90;;;;;;2078202;28;20189;-60
2023/03/25 02:20:07;;;;;;;16.88;15.07;;;5.30;99.90;;;;;;2077431;28;20184;-60
2023/03/25 02:21:36;;;;;;;3.90;1.08;;;5.30;99.90;;;;;;2072986;28;20288;-61
2023/03/25 02:22:48;;;;;;;6.35;3.95;;;5.30;99.90;;;;;;2068642;28;20198;-61
2023/03/25 02:24:35;;;;;;;6.80;1.35;;;5.30;99.90;;;;;;2071253;28;20642;-60
2023/03/25 02:26:14;;;;;;;25.75;23.80;;;5.20;99.90;;;;;;2077612;28;20646;-61
2023/03/25 02:27:32;;;;;;;8.13;6.93;;;5.10;99.90;;;;;;2078928;28;20209;-60
2023/03/25 02:28:56;;;;;;;9.13;8.60;;;5.00;99.90;;;;;;2068963;28;20181;-61
2023/03/25 02:30:37;;;;;;;7.32;5.95;;;4.90;99.90;;;;;;2068878;28;20194;-61
2023/03/25 02:32:24;;;;;;;23.00;21.58;;;4.70;99.90;;;;;;2068160;28;20188;-61
2023/03/25 02:34:04;;;;;;;1.60;1.10;;;4.50;99.90;;;;;;2069155;28;20223;-61
2023/03/25 02:35:30;;;;;;;17.20;16.17;;;4.40;99.90;;;;;;2075030;28;20840;-61
2023/03/25 02:36:51;;;;;;;2.78;1.08;;;4.40;99.90;;;;;;2079448;28;20234;-60
2023/03/25 02:38:08;;;;;;;2.38;1.92;;;4.40;99.90;;;;;;2068740;28;20185;-60
2023/03/25 02:39:21;;;;;;;5.78;5.28;;;4.40;99.90;;;;;;2071194;28;20194;-60
2023/03/25 02:40:37;;;;;;;3.47;2.65;;;4.40;99.90;;;;;;2079556;28;20268;-60
2023/03/25 02:41:59;;;;;;;4.28;3.83;;;4.40;99.90;;;;;;2076594;28;20180;-59
2023/03/25 02:43:21;;;;;;;4.50;4.25;;;4.50;99.90;;;;;;2073321;28;20225;-59
2023/03/25 02:45:14;;;;;;;22.38;20.92;;;4.50;99.90;;;;;;2069568;28;20727;-60
2023/03/25 02:46:22;;;;;;;3.85;3.65;;;4.50;99.90;;;;;;2055884;28;20246;-61
2023/03/25 02:47:40;;;;;;;3.80;3.15;;;4.50;99.90;;;;;;2066578;28;20193;-61
2023/03/25 02:48:54;;;;;;;4.18;3.90;;;4.60;99.90;;;;;;2071930;28;20725;-60
2023/03/25 02:50:40;;;;;;;8.10;1.65;;;4.60;99.90;;;;;;2077549;28;20216;-61
2023/03/25 02:51:55;;;;;;;0.80;0.68;;;4.70;99.90;;;;;;2068475;28;20186;-61
2023/03/25 02:53:09;;;;;;;6.60;6.22;;;4.70;99.90;;;;;;2071351;28;20872;-59
2023/03/25 02:54:18;;;;;;;4.57;1.20;;;4.60;99.90;;;;;;2074201;28;20272;-62
2023/03/25 02:55:29;;;;;;;5.43;5.03;;;4.60;99.90;;;;;;2077377;28;20182;-61
2023/03/25 02:56:36;;;;;;;2.92;1.00;;;4.70;99.90;;;;;;2076986;28;20185;-61
2023/03/25 02:57:46;;;;;;;1.85;0.70;;;4.70;99.90;;;;;;2076840;28;20233;-62
2023/03/25 02:58:55;;;;;;;13.82;12.88;;;4.70;99.90;;;;;;2076763;28;20199;-62
2023/03/25 03:00:09;;;;;;;2.67;1.85;;;4.70;99.90;;;;;;2076748;28;20189;-61
2023/03/25 03:01:15;;;;;;;12.75;11.88;;;4.70;99.90;;;;;;2076718;28;20193;-60
2023/03/25 03:02:25;;;;;;;2.63;1.02;;;4.70;99.90;;;;;;2076797;28;20190;-61
2023/03/25 03:03:31;;;;;;;4.80;4.40;;;4.80;99.90;;;;;;2068540;28;20178;-60
2023/03/25 03:04:55;;;;;;;2.78;0.70;;;4.80;99.90;;;;;;2070041;28;20182;-61
2023/03/25 03:06:04;;;;;;;5.70;5.22;;;4.80;99.90;;;;;;2079022;28;20181;-61
2023/03/25 03:07:14;;;;;;;6.13;5.78;;;4.70;99.90;;;;;;2068644;28;20775;-60
2023/03/25 03:08:48;;;;;;;0.82;0.70;;;4.80;99.90;;;;;;2064070;28;20193;-60
2023/03/25 03:10:25;;;;;;;9.60;9.07;;;4.80;99.90;;;;;;2074132;28;20193;-60
2023/03/25 03:11:59;;;;;;;4.93;4.38;;;4.70;99.90;;;;;;2076684;28;20213;-60
2023/03/25 03:13:21;;;;;;;3.05;1.45;;;4.70;99.90;;;;;;2071305;28;20216;-60
2023/03/25 03:14:48;;;;;;;3.20;2.83;;;4.70;99.90;;;;;;2071818;28;20242;-60
2023/03/25 03:16:10;;;;;;;2.65;0.68;;;4.70;99.90;;;;;;2076828;28;20240;-60
2023/03/25 03:18:25;;;;;;;6.60;6.22;;;4.70;99.90;;;;;;2076665;28;20756;-61
2023/03/25 03:19:48;;;;;;;3.92;3.50;;;4.70;99.90;;;;;;2055971;28;20209;-61
2023/03/25 03:21:22;;;;;;;3.95;3.72;;;4.70;99.90;;;;;;2077002;28;20200;-60
2023/03/25 03:22:51;;;;;;;5.90;5.53;;;4.70;99.90;;;;;;2079384;28;20197;-60
2023/03/25 03:24:16;;;;;;;1.15;0.93;;;4.70;99.90;;;;;;2078589;28;20632;-60
2023/03/25 03:25:34;;;;;;;1.40;0.90;;;4.60;99.90;;;;;;2078523;28;20193;-61
2023/03/25 03:27:08;;;;;;;3.25;0.82;;;4.60;99.90;;;;;;2077423;28;20268;-60
2023/03/25 03:28:28;;;;;;;4.35;3.33;;;4.60;99.90;;;;;;2079260;28;20193;-60
2023/03/25 03:29:57;;;;;;;1.55;1.33;;;4.60;99.90;;;;;;2080742;28;20240;-60
2023/03/25 03:31:23;;;;;;;2.28;0.70;;;4.70;99.90;;;;;;2081195;28;20184;-60
2023/03/25 03:32:44;;;;;;;1.30;0.80;;;4.60;99.90;;;;;;2070220;28;20181;-60
2023/03/25 03:34:25;;;;;;;3.25;1.17;;;4.60;99.90;;;;;;2072268;28;20199;-59
2023/03/25 03:35:37;;;;;;;3.35;1.60;;;4.60;99.90;;;;;;2073328;28;20185;-59
2023/03/25 03:36:49;;;;;;;5.10;1.15;;;4.60;99.90;;;;;;2064727;28;20205;-60
2023/03/25 03:38:08;;;;;;;3.20;0.85;;;4.60;99.90;;;;;;2064348;28;20195;-60
2023/03/25 03:39:27;;;;;;;3.72;1.33;;;4.60;99.90;;;;;;2073530;28;20185;-59
2023/03/25 03:40:35;;;;;;;2.92;2.78;;;4.60;99.90;;;;;;2080409;28;20601;-61
2023/03/25 03:41:46;;;;;;;3.15;2.95;;;4.60;99.90;;;;;;2068518;28;20189;-61
2023/03/25 03:42:57;;;;;;;1.17;0.90;;;4.50;99.90;;;;;;2070859;28;20225;-60
2023/03/25 03:44:08;;;;;;;1.63;0.88;;;4.60;99.90;;;;;;2068744;28;20564;-61
2023/03/25 03:45:26;;;;;;;1.38;1.13;;;4.50;99.90;;;;;;2062091;28;20189;-60
2023/03/25 03:46:44;;;;;;;2.83;1.10;;;4.50;99.90;;;;;;2063514;28;20652;-60
2023/03/25 03:47:55;;;;;;;4.32;1.75;;;4.50;99.90;;;;;;2071886;28;20564;-61
2023/03/25 03:49:04;;;;;;;1.83;0.75;;;4.40;99.90;;;;;;2076536;28;20232;-60
2023/03/25 03:50:25;;;;;;;1.75;0.95;;;4.40;99.90;;;;;;2071764;28;20212;-60
2023/03/25 03:51:39;;;;;;;2.45;2.22;;;4.30;99.90;;;;;;2075250;28;20238;-61
2023/03/25 03:53:01;;;;;;;6.03;5.63;;;4.30;99.90;;;;;;2066831;28;20693;-61
2023/03/25 03:54:13;;;;;;;1.95;1.40;;;4.20;99.90;;;;;;2067776;28;20284;-59
2023/03/25 03:55:54;;;;;;;3.38;3.20;;;4.30;99.90;;;;;;2072711;28;20185;-58
2023/03/25 03:57:07;;;;;;;2.25;0.85;;;4.30;99.90;;;;;;2070997;28;20243;-60
2023/03/25 03:58:24;;;;;;;1.73;1.60;;;4.20;99.90;;;;;;2077342;28;20189;-60
2023/03/25 03:59:46;;;;;;;1.02;0.70;;;4.20;99.90;;;;;;2070611;28;20197;-60
2023/03/25 04:01:04;;;;;;;1.77;1.15;;;4.30;99.90;;;;;;2069854;28;20212;-59
2023/03/25 04:02:15;;;;;;;6.63;1.50;;;4.30;99.90;;;;;;2072264;28;20709;-59
2023/03/25 04:03:29;;;;;;;2.05;1.00;;;4.30;99.90;;;;;;2072779;28;20779;-60
2023/03/25 04:04:37;;;;;;;6.05;1.60;;;4.20;99.90;;;;;;2068044;28;20216;-59
2023/03/25 04:05:52;;;;;;;7.05;6.55;;;4.20;99.90;;;;;;2069817;28;20277;-59
2023/03/25 04:07:06;;;;;;;2.25;0.90;;;4.20;99.90;;;;;;2067995;28;20658;-61
2023/03/25 04:08:33;;;;;;;1.55;1.27;;;4.30;99.90;;;;;;2074233;28;20186;-59
2023/03/25 04:09:53;;;;;;;1.77;1.00;;;4.30;99.90;;;;;;2076814;28;20673;-60
2023/03/25 04:11:08;;;;;;;4.75;2.10;;;4.30;99.90;;;;;;2076406;28;20233;-60
2023/03/25 04:12:24;;;;;;;1.17;1.08;;;4.30;99.90;;;;;;2067857;28;20202;-61
2023/03/25 04:13:38;;;;;;;4.68;2.53;;;4.30;99.90;;;;;;2071030;28;20644;-57
2023/03/25 04:14:45;;;;;;;3.78;1.10;;;4.20;99.90;;;;;;2072370;28;20993;-60
2023/03/25 04:15:51;;;;;;;5.18;2.15;;;4.20;99.90;;;;;;2076292;28;20201;-61
2023/03/25 04:16:58;;;;;;;1.83;1.73;;;4.30;99.90;;;;;;2075074;28;20555;-61
2023/03/25 04:18:04;;;;;;;8.80;8.13;;;4.20;99.90;;;;;;2069461;28;20296;-61
2023/03/25 04:19:12;;;;;;;7.10;6.43;;;4.20;99.90;;;;;;2076890;28;20193;-60
2023/03/25 04:20:22;;;;;;;2.45;1.52;;;4.20;99.90;;;;;;2076746;28;20215;-61
2023/03/25 04:21:28;;;;;;;20.35;19.08;;;4.20;99.90;;;;;;2067870;28;20190;-61
2023/03/25 04:22:37;;;;;;;7.32;5.10;;;4.20;99.90;;;;;;2069463;28;20197;-61
2023/03/25 04:23:44;;;;;;;4.45;3.30;;;4.20;99.90;;;;;;2076779;28;20188;-59
2023/03/25 04:24:53;;;;;;;4.13;1.25;;;4.20;99.90;;;;;;2076784;28;20193;-60
2023/03/25 04:26:01;;;;;;;3.25;2.17;;;4.20;99.90;;;;;;2076949;28;20198;-61
2023/03/25 04:27:04;;;;;;;4.20;2.45;;;4.20;99.90;;;;;;2076565;28;20181;-58
2023/03/25 04:28:12;;;;;;;3.28;3.08;;;4.20;99.90;;;;;;2076780;28;20586;-61
2023/03/25 04:29:18;;;;;;;19.02;17.80;;;4.20;99.90;;;;;;2076895;28;20235;-60
2023/03/25 04:30:27;;;;;;;11.70;10.85;;;4.20;99.90;;;;;;2076621;28;20608;-58
2023/03/25 04:31:32;;;;;;;3.97;1.10;;;4.20;99.90;;;;;;2076567;28;20235;-61
2023/03/25 04:32:38;;;;;;;1.67;0.90;;;4.10;99.90;;;;;;2076617;28;20185;-60
2023/03/25 04:33:49;;;;;;;1.00;0.95;;;4.20;99.90;;;;;;2076684;28;20212;-61
2023/03/25 04:34:56;;;;;;;4.32;0.82;;;4.20;99.90;;;;;;2076706;28;20306;-60
2023/03/25 04:36:02;;;;;;;6.82;2.35;;;4.20;99.90;;;;;;2076606;28;20188;-61
2023/03/25 04:37:05;;;;;;;1.15;0.70;;;4.30;99.90;;;;;;2076675;28;20196;-61
2023/03/25 04:38:10;;;;;;;7.88;2.35;;;4.30;99.90;;;;;;2076683;28;20182;-60
2023/03/25 04:39:16;;;;;;;3.90;3.38;;;4.30;99.90;;;;;;2076612;28;20192;-62
2023/03/25 04:40:24;;;;;;;2.78;2.50;;;4.30;99.90;;;;;;2076754;28;20185;-60
2023/03/25 04:41:30;;;;;;;7.03;6.63;;;4.30;99.90;;;;;;2076272;28;20224;-61
2023/03/25 04:42:36;;;;;;;6.22;2.35;;;4.30;99.90;;;;;;2076846;28;20189;-60
2023/03/25 04:43:43;;;;;;;2.17;1.10;;;4.30;99.90;;;;;;2076764;28;20184;-61
2023/03/25 04:44:49;;;;;;;2.65;1.00;;;4.30;99.90;;;;;;2077139;28;20189;-60
2023/03/25 04:45:56;;;;;;;2.15;1.00;;;4.30;99.90;;;;;;2077037;28;20192;-61
2023/03/25 04:47:02;;;;;;;3.20;0.80;;;4.30;99.90;;;;;;2076726;28;20212;-61
2023/03/25 04:48:04;;;;;;;1.73;1.52;;;4.30;99.90;;;;;;2076662;28;20188;-61
2023/03/25 04:49:21;;;;;;;2.08;1.88;;;4.30;99.90;;;;;;2076610;28;20207;-61
2023/03/25 04:50:29;;;;;;;4.15;0.93;;;4.40;99.90;;;;;;2079809;28;20223;-61
2023/03/25 04:51:34;;;;;;;1.98;1.10;;;4.30;99.90;;;;;;2076536;28;20169;-61
2023/03/25 04:52:40;;;;;;;4.80;1.67;;;4.40;99.90;;;;;;2076689;28;20685;-62
2023/03/25 04:53:46;;;;;;;3.80;0.93;;;4.50;99.90;;;;;;2076788;28;20184;-61
2023/03/25 04:54:51;;;;;;;2.97;0.90;;;4.40;99.90;;;;;;2078087;28;20192;-60
2023/03/25 04:55:57;;;;;;;3.65;1.27;;;4.50;99.90;;;;;;2077502;28;20188;-61
2023/03/25 04:57:03;;;;;;;5.38;1.55;;;4.50;99.90;;;;;;2077456;28;20544;-61
2023/03/25 04:58:06;;;;;;;1.70;1.05;;;4.60;99.90;;;;;;2077126;28;20615;-61
2023/03/25 04:59:09;;;;;;;8.15;2.05;;;4.50;99.90;;;;;;2077409;28;20240;-60
2023/03/25 05:00:19;;;;;;;9.88;9.13;;;4.40;99.90;;;;;;2077449;28;20647;-60
2023/03/25 05:01:30;;;;;;;2.70;2.45;;;4.40;99.90;;;;;;2076810;28;20246;-61
2023/03/25 05:02:37;;;;;;;3.83;2.20;;;4.50;99.90;;;;;;2077550;28;20737;-61
2023/03/25 05:03:42;;;;;;;3.17;1.00;;;4.50;99.90;;;;;;2077876;28;20177;-61
2023/03/25 05:04:48;;;;;;;2.33;0.82;;;4.50;99.90;;;;;;2076708;28;20185;-61
2023/03/25 05:05:55;;;;;;;3.50;0.80;;;4.50;99.90;;;;;;2076501;28;20188;-61
2023/03/25 05:07:01;;;;;;;4.82;1.20;;;4.50;99.90;;;;;;2076756;28;20181;-61
2023/03/25 05:08:04;;;;;;;2.35;0.98;;;4.50;99.90;;;;;;2076431;28;20213;-60
2023/03/25 05:09:14;;;;;;;2.80;0.70;;;4.50;99.90;;;;;;2076571;28;20655;-60
2023/03/25 05:10:22;;;;;;;3.38;0.90;;;4.50;99.90;;;;;;2068041;28;20218;-61
2023/03/25 05:11:28;;;;;;;3.85;0.80;;;4.50;99.90;;;;;;2069669;28;20261;-62
2023/03/25 05:12:34;;;;;;;4.97;0.93;;;4.50;99.90;;;;;;2076310;28;20598;-61
2023/03/25 05:13:40;;;;;;;8.65;1.10;;;4.50;99.90;;;;;;2076669;28;20571;-60
2023/03/25 05:14:45;;;;;;;1.92;0.80;;;4.60;99.90;;;;;;2077858;28;20190;-61
2023/03/25 05:15:51;;;;;;;6.22;1.33;;;4.60;99.90;;;;;;2067927;28;20194;-61
2023/03/25 05:16:59;;;;;;;2.90;0.70;;;4.60;99.90;;;;;;2068259;28;20179;-62
2023/03/25 05:18:14;;;;;;;2.00;0.90;;;4.50;99.90;;;;;;2076593;28;20530;-61
2023/03/25 05:19:19;;;;;;;4.82;1.02;;;4.60;99.90;;;;;;2078001;28;20204;-59
2023/03/25 05:20:25;;;;;;;1.20;0.70;;;4.60;99.90;;;;;;2078080;28;20213;-61
2023/03/25 05:21:36;;;;;;;4.30;1.02;;;4.60;99.90;;;;;;2077905;28;20269;-59
2023/03/25 05:22:44;;;;;;;5.78;1.30;;;4.60;99.90;;;;;;2078140;28;20240;-62
2023/03/25 05:23:51;;;;;;;3.17;1.48;;;4.70;99.90;;;;;;2078168;28;20590;-61
2023/03/25 05:24:57;;;;;;;2.47;0.95;;;4.50;99.90;;;;;;2078003;28;20209;-61
2023/03/25 05:26:03;;;;;;;2.10;0.90;;;4.50;99.90;;;;;;2078156;28;20219;-60
2023/03/25 05:27:04;;;;;;;2.17;1.98;;;4.40;99.90;;;;;;2077968;28;20650;-61
2023/03/25 05:28:12;;;;;;;4.50;1.25;;;4.30;99.90;;;;;;2082205;28;20185;-61
2023/03/25 05:29:18;;;;;;;6.68;1.15;;;4.20;99.90;;;;;;2082829;28;20200;-61
2023/03/25 05:30:31;;;;;;;2.78;0.90;;;4.20;99.90;;;;;;2080359;28;20193;-60
2023/03/25 05:31:36;;;;;;;3.60;1.15;;;4.20;99.90;;;;;;2078233;28;20176;-59
2023/03/25 05:32:44;;;;;;;4.13;0.80;;;4.20;99.90;;;;;;2082080;28;20181;-60
2023/03/25 05:33:50;;;;;;;5.82;1.02;;;4.10;99.90;;;;;;2078395;28;20189;-60
2023/03/25 05:34:56;;;;;;;2.13;0.65;;;4.10;99.90;;;;;;2079383;28;20677;-59
2023/03/25 05:36:03;;;;;;;2.58;0.98;;;4.10;99.90;;;;;;2082254;28;20208;-60
2023/03/25 05:37:04;;;;;;;4.57;4.20;;;4.00;99.90;;;;;;2080605;28;20267;-58
2023/03/25 05:38:11;;;;;;;4.57;0.80;;;4.00;99.90;;;;;;2078777;28;20643;-60
2023/03/25 05:39:17;;;;;;;1.75;1.17;;;3.90;99.90;;;;;;2069494;28;20197;-59
2023/03/25 05:40:24;;;;;;;0.80;0.50;;;4.00;99.90;;;;;;2071272;28;20189;-60
2023/03/25 05:41:37;;;;;;;3.47;2.67;;;4.00;99.90;;;;;;2081022;28;20192;-59
2023/03/25 05:42:47;;;;;;;2.08;0.80;;;4.00;99.90;;;;;;2077892;28;20193;-60
2023/03/25 05:43:53;;;;;;;3.28;3.13;;;3.90;99.90;;;;;;2078017;28;20177;-60
2023/03/25 05:44:59;;;;;;;3.72;0.80;;;3.90;99.90;;;;;;2069345;28;20208;-62
2023/03/25 05:46:05;;;;;;;1.38;1.23;;;3.90;99.90;;;;;;2070014;28;20221;-60
2023/03/25 05:47:09;;;;;;;1.77;0.85;;;3.90;99.90;;;;;;2078239;28;20181;-62
2023/03/25 05:48:16;;;;;;;13.00;9.00;;;3.90;99.90;;;;;;2078396;28;20182;-61
2023/03/25 05:49:22;;;;;;;0.88;0.55;;;4.00;99.90;;;;;;2078346;28;20186;-61
2023/03/25 05:50:28;;;;;;;2.88;2.67;;;4.00;99.90;;;;;;2078333;28;20528;-61
2023/03/25 05:51:37;;;;;;;1.33;0.85;;;4.00;99.90;;;;;;2077905;28;20199;-61
2023/03/25 05:52:44;;;;;;;1.60;0.88;;;4.00;99.90;;;;;;2078253;28;20256;-61
2023/03/25 05:53:50;;;;;;;1.33;0.93;;;4.00;99.90;;;;;;2077771;28;20197;-60
2023/03/25 05:54:55;;;;;;;4.25;3.95;;;4.00;99.90;;;;;;2078184;28;20187;-60
2023/03/25 05:56:01;;;;;;;1.73;0.70;;;4.00;99.90;;;;;;2077908;28;20188;-61
2023/03/25 05:57:05;;;;;;;1.00;0.63;;;4.00;99.90;;;;;;2077849;28;20177;-60
2023/03/25 05:58:09;;;;;;;7.78;7.38;;;4.00;99.90;;;;;;2077844;28;20188;-60
2023/03/25 05:59:16;;;;;;;1.60;0.95;;;3.70;99.90;;;;;;2078008;28;20185;-60
2023/03/25 06:00:21;;;;;;;1.27;1.17;;;3.90;99.90;;;;;;2069168;28;20193;-60
2023/03/25 06:01:27;;;;;;;8.20;7.78;;;3.90;99.90;;;;;;2070446;28;20183;-60
2023/03/25 06:02:37;;;;;;;5.50;3.80;;;3.90;99.90;;;;;;2077639;28;20170;-60
2023/03/25 06:03:44;;;;;;;1.85;0.90;;;3.90;99.90;;;;;;2077234;28;20181;-60
2023/03/25 06:04:50;;;;;;;7.20;6.80;;;3.90;99.90;;;;;;2077178;28;20193;-61
2023/03/25 06:05:56;;;;;;;2.08;1.98;;;3.90;99.90;;;;;;2077822;28;20260;-60
2023/03/25 06:07:08;;;;;;;3.72;3.35;;;3.90;99.90;;;;;;2080864;28;20176;-59
2023/03/25 06:08:10;;;;;;;3.50;3.30;;;4.00;99.90;;;;;;2076245;28;20194;-61
2023/03/25 06:09:16;;;;;;;1.23;0.88;;;4.00;99.90;;;;;;2077925;28;20192;-61
2023/03/25 06:10:23;;;;;;;1.25;1.25;;;4.00;99.90;;;;;;2077908;28;20181;-60
2023/03/25 06:11:29;;;;;;;0.60;0.60;;;4.00;99.90;;;;;;2077650;28;20192;-61
2023/03/25 06:12:37;;;;;;;7.57;7.13;;;4.00;99.90;;;;;;2077330;28;20600;-60
2023/03/25 06:13:51;;;;;;;2.00;1.15;;;4.00;99.90;;;;;;2077454;28;20189;-59